createdAt,value
2022-11-28T00:01:46.062Z,91.38
2022-11-28T00:04:14.267Z,91.12
2022-11-28T00:06:47.019Z,90.75
2022-11-28T00:09:16.420Z,92.27
2022-11-28T00:11:46.347Z,92.83
2022-11-28T00:14:15.494Z,93.35
2022-11-28T00:16:47.446Z,93.63
2022-11-28T00:19:15.791Z,93.55
2022-11-28T00:21:43.772Z,93.77
2022-11-28T00:24:11.551Z,91.38
2022-11-28T00:26:41.687Z,91.74
2022-11-28T00:29:10.972Z,92.00
2022-11-28T00:31:43.102Z,91.87
2022-11-28T00:34:13.839Z,92.41
2022-11-28T00:36:42.708Z,93.26
2022-11-28T00:39:10.229Z,93.27
2022-11-28T00:41:37.900Z,93.75
2022-11-28T00:44:05.782Z,94.20
2022-11-28T00:46:36.452Z,95.09
2022-11-28T00:49:04.712Z,93.50
2022-11-28T00:51:34.922Z,94.29
2022-11-28T00:54:04.917Z,95.82
2022-11-28T00:56:37.386Z,96.44
2022-11-28T00:59:05.540Z,98.02
2022-11-28T01:01:40.315Z,96.67
2022-11-28T01:04:11.049Z,95.49
2022-11-28T01:06:45.849Z,96.42
2022-11-28T01:09:24.894Z,94.82
2022-11-28T01:11:54.589Z,92.66
2022-11-28T01:14:25.251Z,91.65
2022-11-28T01:16:53.268Z,90.07
2022-11-28T01:19:21.356Z,90.31
2022-11-28T01:21:49.571Z,91.68
2022-11-28T01:24:17.610Z,92.53
2022-11-28T01:26:45.322Z,93.46
2022-11-28T01:29:13.616Z,91.87
2022-11-28T01:31:41.421Z,92.80
2022-11-28T01:34:09.496Z,93.98
2022-11-28T01:36:37.038Z,94.92
2022-11-28T01:39:05.674Z,96.68
2022-11-28T01:41:33.277Z,95.27
2022-11-28T01:44:09.202Z,89.81
2022-11-28T01:46:37.581Z,90.50
2022-11-28T01:49:40.869Z,91.71
2022-11-28T01:52:16.570Z,88.50
2022-11-28T01:54:51.003Z,90.08
2022-11-28T01:57:25.637Z,90.55
2022-11-28T02:00:09.912Z,93.22
2022-11-28T02:02:49.067Z,93.76
2022-11-28T02:05:19.189Z,95.79
2022-11-28T02:07:48.269Z,95.32
2022-11-28T02:10:33.088Z,95.26
2022-11-28T02:13:15.640Z,96.53
2022-11-28T02:16:06.912Z,97.23
2022-11-28T02:19:32.576Z,96.56
2022-11-28T02:22:48.575Z,96.73
2022-11-28T02:25:43.958Z,95.57
2022-11-28T02:28:23.451Z,97.20
2022-11-28T02:31:11.395Z,98.28
2022-11-28T02:33:53.996Z,98.02
2022-11-28T02:36:36.564Z,97.89
2022-11-28T02:39:55.348Z,96.35
2022-11-28T02:43:04.015Z,97.83
2022-11-28T02:46:22.161Z,97.93
2022-11-28T02:49:05.472Z,97.12
2022-11-28T02:51:44.196Z,98.49
2022-11-28T02:54:16.495Z,100.00
2022-11-28T02:56:52.618Z,100.00
2022-11-28T02:59:37.740Z,100.00
2022-11-28T03:02:17.599Z,100.00
2022-11-28T03:05:14.164Z,100.00
2022-11-28T03:08:02.232Z,100.00
2022-11-28T03:10:59.791Z,100.00
2022-11-28T03:14:13.735Z,100.00
2022-11-28T03:16:46.985Z,100.00
2022-11-28T03:19:35.128Z,100.00
2022-11-28T03:22:22.818Z,100.00
2022-11-28T03:25:01.093Z,100.00
2022-11-28T03:27:47.354Z,100.00
2022-11-28T03:30:30.981Z,100.00
2022-11-28T03:33:01.989Z,100.00
2022-11-28T03:35:35.662Z,100.00
2022-11-28T03:38:13.487Z,100.00
2022-11-28T03:40:47.321Z,100.00
2022-11-28T03:43:20.869Z,100.00
2022-11-28T03:45:55.797Z,100.00
2022-11-28T03:48:31.910Z,100.00
2022-11-28T03:51:23.242Z,100.00
2022-11-28T03:54:01.465Z,100.00
2022-11-28T03:56:37.521Z,100.00
2022-11-28T03:59:16.997Z,100.00
2022-11-28T04:02:31.316Z,100.00
2022-11-28T04:05:11.951Z,100.00
2022-11-28T04:08:01.612Z,100.00
2022-11-28T04:10:29.145Z,100.00
2022-11-28T04:13:22.976Z,100.00
2022-11-28T04:16:32.079Z,100.00
2022-11-28T04:19:22.481Z,100.00
2022-11-28T04:22:05.077Z,100.00
2022-11-28T04:24:47.569Z,100.00
2022-11-28T04:27:23.817Z,100.00
2022-11-28T04:29:57.336Z,100.00
2022-11-28T04:32:27.751Z,100.00
2022-11-28T04:35:13.622Z,100.00
2022-11-28T04:37:44.464Z,100.00
2022-11-28T04:40:13.878Z,100.00
2022-11-28T04:42:52.735Z,100.00
2022-11-28T04:45:35.643Z,100.00
2022-11-28T04:48:03.889Z,100.00
2022-11-28T04:51:20.599Z,100.00
2022-11-28T04:54:01.058Z,100.00
2022-11-28T04:56:46.123Z,100.00
2022-11-28T04:59:15.553Z,100.00
2022-11-28T05:01:46.806Z,100.00
2022-11-28T05:04:17.222Z,100.00
2022-11-28T05:06:45.341Z,100.00
2022-11-28T05:09:13.809Z,100.00
2022-11-28T05:11:41.836Z,100.00
2022-11-28T05:14:09.436Z,100.00
2022-11-28T05:16:36.998Z,100.00
2022-11-28T05:19:04.592Z,100.00
2022-11-28T05:21:32.090Z,100.00
2022-11-28T05:24:01.002Z,100.00
2022-11-28T05:26:32.237Z,100.00
2022-11-28T05:28:59.758Z,100.00
2022-11-28T05:31:27.606Z,100.00
2022-11-28T05:33:56.544Z,100.00
2022-11-28T05:36:24.125Z,100.00
2022-11-28T05:38:51.646Z,100.00
2022-11-28T05:41:31.767Z,100.00
2022-11-28T05:44:01.549Z,100.00
2022-11-28T05:46:30.500Z,100.00
2022-11-28T05:48:58.387Z,100.00
2022-11-28T05:51:25.999Z,100.00
2022-11-28T05:53:53.607Z,100.00
2022-11-28T05:56:23.415Z,100.00
2022-11-28T05:58:53.454Z,100.00
2022-11-28T06:01:27.984Z,100.00
2022-11-28T06:04:00.079Z,100.00
2022-11-28T06:06:31.631Z,100.00
2022-11-28T06:09:00.012Z,100.00
2022-11-28T06:11:30.485Z,100.00
2022-11-28T06:13:58.286Z,100.00
2022-11-28T06:16:31.240Z,100.00
2022-11-28T06:19:05.621Z,100.00
2022-11-28T06:21:33.987Z,100.00
2022-11-28T06:24:01.678Z,100.00
2022-11-28T06:26:30.069Z,100.00
2022-11-28T06:28:58.279Z,100.00
2022-11-28T06:31:30.152Z,100.00
2022-11-28T06:33:59.086Z,100.00
2022-11-28T06:36:27.278Z,100.00
2022-11-28T06:38:54.837Z,100.00
2022-11-28T06:41:23.370Z,100.00
2022-11-28T06:43:51.034Z,100.00
2022-11-28T06:46:21.661Z,100.00
2022-11-28T06:48:52.339Z,100.00
2022-11-28T06:51:21.528Z,100.00
2022-11-28T06:53:49.346Z,100.00
2022-11-28T06:56:20.193Z,100.00
2022-11-28T06:58:54.876Z,100.00
2022-11-28T07:01:27.318Z,100.00
2022-11-28T07:03:55.117Z,100.00
2022-11-28T07:06:25.334Z,100.00
2022-11-28T07:08:53.696Z,100.00
2022-11-28T07:11:30.797Z,100.00
2022-11-28T07:14:00.846Z,100.00
2022-11-28T07:16:32.803Z,100.00
2022-11-28T07:19:04.045Z,100.00
2022-11-28T07:21:32.537Z,100.00
2022-11-28T07:24:00.877Z,100.00
2022-11-28T07:26:28.524Z,100.00
2022-11-28T07:28:58.290Z,100.00
2022-11-28T07:31:31.624Z,100.00
2022-11-28T07:34:03.458Z,100.00
2022-11-28T07:36:31.453Z,100.00
2022-11-28T07:39:02.405Z,100.00
2022-11-28T07:41:30.460Z,100.00
2022-11-28T07:44:01.393Z,100.00
2022-11-28T07:46:31.320Z,100.00
2022-11-28T07:48:59.064Z,100.00
2022-11-28T07:51:33.603Z,100.00
2022-11-28T07:54:03.186Z,100.00
2022-11-28T07:59:21.920Z,100.00
2022-11-28T08:01:50.819Z,100.00
2022-11-28T08:04:18.470Z,100.00
2022-11-28T08:06:46.001Z,100.00
2022-11-28T08:09:13.688Z,100.00
2022-11-28T08:11:41.784Z,100.00
2022-11-28T08:14:11.572Z,100.00
2022-11-28T08:16:45.126Z,100.00
2022-11-28T08:19:13.251Z,100.00
2022-11-28T08:21:42.264Z,100.00
2022-11-28T08:24:10.374Z,100.00
2022-11-28T08:26:38.054Z,100.00
2022-11-28T08:29:05.932Z,100.00
2022-11-28T08:31:37.133Z,100.00
2022-11-28T08:34:09.735Z,100.00
2022-11-28T08:36:38.312Z,100.00
2022-11-28T08:39:23.342Z,100.00
2022-11-28T08:41:51.652Z,100.00
2022-11-28T08:44:19.173Z,100.00
2022-11-28T08:46:46.654Z,100.00
2022-11-28T08:49:14.252Z,100.00
2022-11-28T08:51:41.775Z,100.00
2022-11-28T08:54:10.528Z,100.00
2022-11-28T08:56:37.939Z,100.00
2022-11-28T08:59:07.166Z,100.00
2022-11-28T09:01:34.780Z,100.00
2022-11-28T09:04:02.370Z,100.00
2022-11-28T09:06:29.874Z,100.00
2022-11-28T09:08:58.725Z,100.00
2022-11-28T09:11:26.289Z,100.00
2022-11-28T09:13:54.051Z,100.00
2022-11-28T09:16:21.666Z,100.00
2022-11-28T09:18:49.196Z,100.00
2022-11-28T09:21:16.888Z,100.00
2022-11-28T09:23:45.830Z,100.00
2022-11-28T09:26:19.538Z,100.00
2022-11-28T09:28:47.602Z,100.00
2022-11-28T09:31:17.562Z,100.00
2022-11-28T09:33:46.500Z,100.00
2022-11-28T09:36:17.567Z,100.00
2022-11-28T09:38:45.322Z,100.00
2022-11-28T09:41:32.930Z,100.00
2022-11-28T09:44:28.502Z,100.00
2022-11-28T09:47:00.760Z,100.00
2022-11-28T09:49:57.819Z,100.00
2022-11-28T09:52:43.070Z,100.00
2022-11-28T09:55:26.595Z,100.00
2022-11-28T09:57:58.182Z,100.00
2022-11-28T10:01:29.539Z,100.00
2022-11-28T10:04:14.028Z,100.00
2022-11-28T10:07:08.934Z,100.00
2022-11-28T10:10:17.768Z,100.00
2022-11-28T10:13:11.186Z,100.00
2022-11-28T10:16:17.174Z,100.00
2022-11-28T10:18:57.554Z,100.00
2022-11-28T10:21:55.041Z,100.00
2022-11-28T10:24:48.414Z,100.00
2022-11-28T10:27:22.477Z,100.00
2022-11-28T10:30:30.418Z,100.00
2022-11-28T10:33:19.693Z,100.00
2022-11-28T10:35:56.503Z,100.00
2022-11-28T10:38:30.152Z,100.00
2022-11-28T10:41:14.056Z,100.00
2022-11-28T10:43:53.966Z,100.00
2022-11-28T10:46:30.226Z,100.00
2022-11-28T10:49:12.639Z,99.85
2022-11-28T10:51:55.420Z,100.00
2022-11-28T10:54:46.507Z,100.00
2022-11-28T10:57:43.135Z,100.00
2022-11-28T11:00:20.070Z,100.00
2022-11-28T11:02:51.238Z,100.00
2022-11-28T11:05:25.447Z,98.47
2022-11-28T11:07:58.534Z,100.00
2022-11-28T11:11:28.716Z,99.33
2022-11-28T11:14:00.691Z,100.00
2022-11-28T11:16:50.047Z,98.63
2022-11-28T11:19:34.126Z,100.00
2022-11-28T11:22:15.297Z,100.00
2022-11-28T11:24:42.837Z,99.17
2022-11-28T11:27:21.718Z,98.25
2022-11-28T11:29:52.383Z,100.00
2022-11-28T11:32:31.652Z,99.41
2022-11-28T11:35:00.530Z,98.40
2022-11-28T11:37:37.142Z,100.00
2022-11-28T11:40:29.285Z,100.00
2022-11-28T11:43:00.625Z,100.00
2022-11-28T11:45:36.176Z,99.60
2022-11-28T11:48:07.896Z,100.00
2022-11-28T11:50:37.394Z,100.00
2022-11-28T11:53:13.929Z,100.00
2022-11-28T11:55:54.174Z,100.00
2022-11-28T11:58:30.927Z,96.92
2022-11-28T12:01:01.795Z,96.79
2022-11-28T12:03:52.325Z,97.41
2022-11-28T12:06:44.237Z,95.65
2022-11-28T12:09:43.233Z,97.79
2022-11-28T12:12:27.193Z,98.02
2022-11-28T12:14:56.575Z,98.72
2022-11-28T12:17:48.324Z,98.94
2022-11-28T12:20:45.353Z,100.00
2022-11-28T12:23:30.995Z,98.18
2022-11-28T12:26:31.561Z,96.97
2022-11-28T12:32:29.537Z,96.00
2022-11-28T12:35:24.296Z,97.96
2022-11-28T12:38:31.259Z,97.64
2022-11-28T12:41:50.454Z,99.77
2022-11-28T12:44:56.992Z,98.81
2022-11-28T12:47:50.319Z,97.54
2022-11-28T12:50:43.046Z,100.00
2022-11-28T12:53:25.155Z,100.00
2022-11-28T12:56:34.673Z,98.05
2022-11-28T12:59:22.329Z,96.76
2022-11-28T13:02:29.028Z,98.21
2022-11-28T13:05:26.947Z,99.78
2022-11-28T13:08:41.944Z,99.28
2022-11-28T13:11:45.338Z,98.33
2022-11-28T13:14:18.461Z,99.91
2022-11-28T13:16:54.547Z,100.00
2022-11-28T13:19:28.917Z,100.00
2022-11-28T13:22:05.453Z,99.87
2022-11-28T13:25:11.051Z,100.00
2022-11-28T13:27:57.337Z,100.00
2022-11-28T13:30:28.601Z,100.00
2022-11-28T13:33:42.190Z,100.00
2022-11-28T13:39:48.380Z,100.00
2022-11-28T13:43:04.435Z,100.00
2022-11-28T13:45:42.894Z,100.00
2022-11-28T13:49:13.937Z,100.00
2022-11-28T13:51:41.938Z,100.00
2022-11-28T13:54:21.339Z,100.00
2022-11-28T13:57:09.983Z,100.00
2022-11-28T13:59:39.005Z,100.00
2022-11-28T14:02:26.115Z,100.00
2022-11-28T14:04:53.851Z,100.00
2022-11-28T14:07:30.679Z,100.00
2022-11-28T14:10:14.752Z,100.00
2022-11-28T14:12:57.425Z,100.00
2022-11-28T14:15:56.692Z,100.00
2022-11-28T14:18:56.369Z,100.00
2022-11-28T14:21:59.228Z,100.00
2022-11-28T14:24:59.508Z,100.00
2022-11-28T14:27:35.913Z,100.00
2022-11-28T14:30:17.652Z,100.00
2022-11-28T14:32:45.612Z,100.00
2022-11-28T14:35:51.187Z,100.00
2022-11-28T14:38:33.863Z,100.00
2022-11-28T14:41:28.958Z,100.00
2022-11-28T14:44:51.276Z,100.00
2022-11-28T14:47:28.618Z,100.00
2022-11-28T14:50:08.476Z,100.00
2022-11-28T14:52:50.892Z,100.00
2022-11-28T14:55:36.251Z,100.00
2022-11-28T14:58:05.702Z,100.00
2022-11-28T15:00:57.996Z,100.00
2022-11-28T15:04:20.246Z,100.00
2022-11-28T15:07:12.943Z,100.00
2022-11-28T15:10:14.069Z,100.00
2022-11-28T15:13:36.786Z,100.00
2022-11-28T15:16:10.830Z,100.00
2022-11-28T15:18:44.129Z,100.00
2022-11-28T15:21:17.195Z,100.00
2022-11-28T15:23:46.899Z,100.00
2022-11-28T15:26:31.586Z,100.00
2022-11-28T15:29:21.937Z,100.00
2022-11-28T15:31:52.814Z,100.00
2022-11-28T15:34:26.806Z,100.00
2022-11-28T15:36:58.710Z,100.00
2022-11-28T15:39:36.845Z,100.00
2022-11-28T15:42:10.077Z,100.00
2022-11-28T15:44:40.088Z,100.00
2022-11-28T15:47:20.028Z,100.00
2022-11-28T15:50:17.150Z,100.00
2022-11-28T15:53:22.199Z,100.00
2022-11-28T15:56:15.941Z,100.00
2022-11-28T15:58:46.516Z,100.00
2022-11-28T16:01:29.185Z,100.00
2022-11-28T16:04:05.875Z,100.00
2022-11-28T16:06:39.818Z,100.00
2022-11-28T16:09:36.612Z,100.00
2022-11-28T16:12:06.863Z,100.00
2022-11-28T16:14:46.422Z,100.00
2022-11-28T16:17:30.015Z,100.00
2022-11-28T16:19:59.021Z,100.00
2022-11-28T16:22:38.518Z,100.00
2022-11-28T16:25:25.143Z,100.00
2022-11-28T16:27:54.260Z,100.00
2022-11-28T16:30:39.250Z,100.00
2022-11-28T16:33:41.001Z,100.00
2022-11-28T16:36:36.060Z,100.00
2022-11-28T16:39:16.456Z,100.00
2022-11-28T16:42:09.275Z,100.00
2022-11-28T16:44:36.834Z,100.00
2022-11-28T16:47:06.698Z,100.00
2022-11-28T16:49:49.785Z,100.00
2022-11-28T16:52:27.594Z,100.00
2022-11-28T16:54:58.513Z,100.00
2022-11-28T16:57:47.652Z,100.00
2022-11-28T17:00:17.485Z,100.00
2022-11-28T17:02:46.867Z,100.00
2022-11-28T17:05:17.133Z,100.00
2022-11-28T17:07:45.968Z,100.00
2022-11-28T17:10:14.078Z,100.00
2022-11-28T17:12:43.569Z,100.00
2022-11-28T17:15:17.179Z,100.00
2022-11-28T17:17:45.049Z,100.00
2022-11-28T17:20:15.390Z,100.00
2022-11-28T17:22:51.814Z,100.00
2022-11-28T17:25:22.905Z,100.00
2022-11-28T17:27:52.670Z,100.00
2022-11-28T17:30:22.406Z,100.00
2022-11-28T17:32:52.120Z,100.00
2022-11-28T17:35:24.599Z,100.00
2022-11-28T17:37:58.933Z,100.00
2022-11-28T17:40:37.380Z,100.00
2022-11-28T17:43:14.805Z,100.00
2022-11-28T17:45:44.260Z,100.00
2022-11-28T17:48:20.377Z,100.00
2022-11-28T17:50:50.625Z,100.00
2022-11-28T17:53:21.591Z,100.00
2022-11-28T17:55:58.997Z,100.00
2022-11-28T17:58:29.323Z,100.00
2022-11-28T18:01:00.790Z,100.00
2022-11-28T18:03:31.540Z,100.00
2022-11-28T18:06:01.378Z,100.00
2022-11-28T18:08:29.873Z,100.00
2022-11-28T18:11:07.360Z,100.00
2022-11-28T18:13:37.848Z,100.00
2022-11-28T18:16:06.864Z,100.00
2022-11-28T18:18:35.511Z,100.00
2022-11-28T18:21:09.001Z,100.00
2022-11-28T18:23:42.079Z,100.00
2022-11-28T18:26:27.462Z,100.00
2022-11-28T18:28:55.891Z,100.00
2022-11-28T18:31:29.584Z,100.00
2022-11-28T18:34:06.393Z,100.00
2022-11-28T18:36:42.439Z,100.00
2022-11-28T18:39:18.620Z,100.00
2022-11-28T18:42:07.397Z,100.00
2022-11-28T18:44:42.095Z,100.00
2022-11-28T18:47:12.255Z,100.00
2022-11-28T18:49:42.381Z,100.00
2022-11-28T18:52:10.091Z,100.00
2022-11-28T18:54:39.327Z,100.00
2022-11-28T18:57:09.800Z,100.00
2022-11-28T18:59:41.255Z,100.00
2022-11-28T19:02:32.531Z,100.00
2022-11-28T19:05:07.507Z,100.00
2022-11-28T19:07:38.205Z,100.00
2022-11-28T19:10:07.882Z,100.00
2022-11-28T19:12:41.530Z,100.00
2022-11-28T19:15:30.676Z,100.00
2022-11-28T19:18:01.424Z,100.00
2022-11-28T19:20:31.607Z,100.00
2022-11-28T19:23:06.717Z,100.00
2022-11-28T19:25:38.651Z,100.00
2022-11-28T19:28:41.481Z,100.00
2022-11-28T19:31:33.776Z,100.00
2022-11-28T19:34:24.825Z,100.00
2022-11-28T19:36:57.553Z,100.00
2022-11-28T19:39:28.171Z,100.00
2022-11-28T19:42:20.261Z,100.00
2022-11-28T19:45:05.309Z,100.00
2022-11-28T19:47:34.585Z,100.00
2022-11-28T19:50:04.603Z,100.00
2022-11-28T19:52:33.134Z,100.00
2022-11-28T19:55:01.834Z,100.00
2022-11-28T19:57:31.371Z,100.00
2022-11-28T20:00:03.201Z,100.00
2022-11-28T20:02:41.763Z,100.00
2022-11-28T20:05:09.861Z,100.00
2022-11-28T20:07:39.624Z,100.00
2022-11-28T20:10:08.384Z,100.00
2022-11-28T20:12:36.114Z,100.00
2022-11-28T20:15:04.062Z,100.00
2022-11-28T20:17:31.686Z,100.00
2022-11-28T20:19:59.886Z,100.00
2022-11-28T20:22:31.050Z,100.00
2022-11-28T20:25:00.904Z,100.00
2022-11-28T20:27:29.716Z,100.00
2022-11-28T20:29:59.680Z,100.00
2022-11-28T20:32:27.490Z,100.00
2022-11-28T20:34:55.841Z,100.00
2022-11-28T20:37:23.648Z,100.00
2022-11-28T20:39:51.379Z,100.00
2022-11-28T20:42:21.038Z,100.00
2022-11-28T20:44:48.526Z,100.00
2022-11-28T20:47:20.017Z,100.00
2022-11-28T20:49:49.097Z,100.00
2022-11-28T20:52:18.373Z,100.00
2022-11-28T20:54:46.535Z,100.00
2022-11-28T20:57:21.457Z,100.00
2022-11-28T20:59:49.809Z,100.00
2022-11-28T21:02:19.349Z,100.00
2022-11-28T21:04:47.436Z,100.00
2022-11-28T21:07:14.982Z,100.00
2022-11-28T21:09:42.736Z,100.00
2022-11-28T21:12:10.450Z,100.00
2022-11-28T21:14:39.616Z,100.00
2022-11-28T21:17:07.047Z,100.00
2022-11-28T21:19:34.508Z,100.00
2022-11-28T21:22:02.109Z,100.00
2022-11-28T21:24:29.695Z,100.00
2022-11-28T21:26:57.853Z,100.00
2022-11-28T21:29:25.547Z,100.00
2022-11-28T21:31:55.577Z,100.00
2022-11-28T21:34:26.044Z,100.00
2022-11-28T21:36:54.972Z,100.00
2022-11-28T21:39:23.125Z,100.00
2022-11-28T21:41:52.290Z,100.00
2022-11-28T21:44:21.170Z,100.00
2022-11-28T21:46:49.729Z,100.00
2022-11-28T21:49:17.259Z,100.00
2022-11-28T21:51:44.897Z,100.00
2022-11-28T21:54:12.790Z,100.00
2022-11-28T21:56:40.956Z,100.00
2022-11-28T21:59:10.217Z,100.00
2022-11-28T22:01:39.155Z,100.00
2022-11-28T22:04:06.919Z,100.00
2022-11-28T22:06:34.641Z,100.00
2022-11-28T22:09:09.218Z,100.00
2022-11-28T22:11:39.846Z,100.00
2022-11-28T22:14:07.953Z,100.00
2022-11-28T22:16:36.610Z,100.00
2022-11-28T22:19:04.958Z,100.00
2022-11-28T22:24:21.143Z,100.00
2022-11-28T22:26:49.393Z,100.00
2022-11-28T22:29:16.932Z,100.00
2022-11-28T22:31:47.548Z,100.00
2022-11-28T22:34:15.153Z,100.00
2022-11-28T22:36:42.800Z,100.00
2022-11-28T22:39:11.937Z,100.00
2022-11-28T22:41:39.864Z,100.00
2022-11-28T22:44:08.102Z,100.00
2022-11-28T22:46:35.628Z,100.00
2022-11-28T22:49:04.741Z,100.00
2022-11-28T22:51:32.923Z,100.00
2022-11-28T22:54:05.139Z,100.00
2022-11-28T22:56:34.997Z,100.00
2022-11-28T22:59:05.008Z,100.00
2022-11-28T23:01:34.869Z,100.00
2022-11-28T23:04:02.840Z,100.00
2022-11-28T23:06:34.346Z,100.00
2022-11-28T23:09:08.646Z,100.00
2022-11-28T23:11:39.888Z,100.00
2022-11-28T23:14:08.558Z,100.00
2022-11-28T23:16:39.346Z,100.00
2022-11-28T23:19:12.889Z,100.00
2022-11-28T23:21:46.875Z,100.00
2022-11-28T23:24:20.588Z,100.00
2022-11-28T23:26:50.522Z,100.00
2022-11-28T23:29:18.753Z,100.00
2022-11-28T23:31:48.042Z,100.00
2022-11-28T23:34:16.423Z,100.00
2022-11-28T23:36:46.987Z,100.00
2022-11-28T23:39:20.963Z,100.00
2022-11-28T23:41:49.831Z,100.00
2022-11-28T23:44:19.404Z,100.00
2022-11-28T23:46:48.373Z,100.00
2022-11-28T23:49:15.861Z,100.00
2022-11-28T23:51:43.608Z,100.00
2022-11-28T23:54:12.906Z,100.00
2022-11-28T23:56:42.740Z,100.00
2022-11-28T23:59:12.854Z,100.00
